sensor_id;sensor_type;location;lat;lon;timestamp;pressure;altitude;pressure_sealevel;temperature
24740;BMP280;45234;48.148;17.128;2022-09-19T00:01:24;99445.75;;;13.70
24740;BMP280;45234;48.148;17.128;2022-09-19T00:03:53;99446.53;;;13.71
24740;BMP280;45234;48.148;17.128;2022-09-19T00:06:21;99446.75;;;13.69
24740;BMP280;45234;48.148;17.128;2022-09-19T00:08:48;99440.72;;;13.69
24740;BMP280;45234;48.148;17.128;2022-09-19T00:11:16;99437.34;;;13.68
24740;BMP280;45234;48.148;17.128;2022-09-19T00:13:47;99437.81;;;13.65
24740;BMP280;45234;48.148;17.128;2022-09-19T00:16:20;99437.00;;;13.65
24740;BMP280;45234;48.148;17.128;2022-09-19T00:18:48;99438.59;;;13.66
24740;BMP280;45234;48.148;17.128;2022-09-19T00:21:26;99445.06;;;13.63
24740;BMP280;45234;48.148;17.128;2022-09-19T00:23:53;99439.84;;;13.63
24740;BMP280;45234;48.148;17.128;2022-09-19T00:26:39;99438.38;;;13.67
24740;BMP280;45234;48.148;17.128;2022-09-19T00:29:07;99436.22;;;13.64
24740;BMP280;45234;48.148;17.128;2022-09-19T00:31:34;99441.44;;;13.64
24740;BMP280;45234;48.148;17.128;2022-09-19T00:34:02;99442.94;;;13.60
24740;BMP280;45234;48.148;17.128;2022-09-19T00:36:34;99442.78;;;13.55
24740;BMP280;45234;48.148;17.128;2022-09-19T00:39:02;99443.56;;;13.56
24740;BMP280;45234;48.148;17.128;2022-09-19T00:41:29;99434.97;;;13.44
24740;BMP280;45234;48.148;17.128;2022-09-19T00:44:00;99446.75;;;13.46
24740;BMP280;45234;48.148;17.128;2022-09-19T00:46:29;99443.34;;;13.46
24740;BMP280;45234;48.148;17.128;2022-09-19T00:49:31;99452.97;;;13.45
24740;BMP280;45234;48.148;17.128;2022-09-19T00:51:51;99455.25;;;13.42
24740;BMP280;45234;48.148;17.128;2022-09-19T00:54:19;99444.25;;;13.40
24740;BMP280;45234;48.148;17.128;2022-09-19T00:56:52;99437.91;;;13.35
24740;BMP280;45234;48.148;17.128;2022-09-19T00:59:21;99440.75;;;13.34
24740;BMP280;45234;48.148;17.128;2022-09-19T01:01:50;99433.16;;;13.32
24740;BMP280;45234;48.148;17.128;2022-09-19T01:04:18;99422.16;;;13.30
24740;BMP280;45234;48.148;17.128;2022-09-19T01:06:48;99413.66;;;13.23
24740;BMP280;45234;48.148;17.128;2022-09-19T01:12:19;99407.22;;;13.14
24740;BMP280;45234;48.148;17.128;2022-09-19T01:17:47;99410.03;;;13.13
24740;BMP280;45234;48.148;17.128;2022-09-19T01:22:48;99404.97;;;13.18
24740;BMP280;45234;48.148;17.128;2022-09-19T01:27:53;99402.00;;;13.14
24740;BMP280;45234;48.148;17.128;2022-09-19T01:30:23;99398.41;;;13.15
24740;BMP280;45234;48.148;17.128;2022-09-19T01:32:53;99399.19;;;13.16
24740;BMP280;45234;48.148;17.128;2022-09-19T01:35:28;99398.19;;;13.17
24740;BMP280;45234;48.148;17.128;2022-09-19T01:38:09;99394.56;;;13.18
24740;BMP280;45234;48.148;17.128;2022-09-19T01:40:38;99385.63;;;13.14
24740;BMP280;45234;48.148;17.128;2022-09-19T01:43:12;99385.03;;;13.12
24740;BMP280;45234;48.148;17.128;2022-09-19T01:45:40;99396.25;;;13.12
24740;BMP280;45234;48.148;17.128;2022-09-19T01:51:20;99393.84;;;13.11
24740;BMP280;45234;48.148;17.128;2022-09-19T01:53:31;99386.53;;;13.08
24740;BMP280;45234;48.148;17.128;2022-09-19T01:56:55;99387.53;;;13.07
24740;BMP280;45234;48.148;17.128;2022-09-19T01:59:30;99375.75;;;13.04
24740;BMP280;45234;48.148;17.128;2022-09-19T02:02:26;99372.81;;;13.00
24740;BMP280;45234;48.148;17.128;2022-09-19T02:05:14;99381.63;;;12.99
24740;BMP280;45234;48.148;17.128;2022-09-19T02:07:44;99382.09;;;12.96
24740;BMP280;45234;48.148;17.128;2022-09-19T02:10:24;99379.94;;;12.93
24740;BMP280;45234;48.148;17.128;2022-09-19T02:12:53;99376.22;;;12.89
24740;BMP280;45234;48.148;17.128;2022-09-19T02:15:39;99378.81;;;12.89
24740;BMP280;45234;48.148;17.128;2022-09-19T02:18:21;99382.63;;;12.87
24740;BMP280;45234;48.148;17.128;2022-09-19T02:20:54;99378.63;;;12.84
24740;BMP280;45234;48.148;17.128;2022-09-19T02:23:24;99371.44;;;12.86
24740;BMP280;45234;48.148;17.128;2022-09-19T02:25:53;99382.72;;;12.80
24740;BMP280;45234;48.148;17.128;2022-09-19T02:28:21;99377.97;;;12.77
24740;BMP280;45234;48.148;17.128;2022-09-19T02:30:52;99382.47;;;12.70
24740;BMP280;45234;48.148;17.128;2022-09-19T02:33:20;99376.94;;;12.66
24740;BMP280;45234;48.148;17.128;2022-09-19T02:38:28;99376.66;;;12.56
24740;BMP280;45234;48.148;17.128;2022-09-19T02:41:08;99379.03;;;12.58
24740;BMP280;45234;48.148;17.128;2022-09-19T02:46:19;99396.38;;;12.64
24740;BMP280;45234;48.148;17.128;2022-09-19T02:51:30;99395.09;;;12.55
24740;BMP280;45234;48.148;17.128;2022-09-19T02:54:08;99399.13;;;12.51
24740;BMP280;45234;48.148;17.128;2022-09-19T02:56:37;99405.91;;;12.52
24740;BMP280;45234;48.148;17.128;2022-09-19T02:59:13;99398.31;;;12.50
24740;BMP280;45234;48.148;17.128;2022-09-19T03:01:52;99419.00;;;12.45
24740;BMP280;45234;48.148;17.128;2022-09-19T03:04:27;99402.69;;;12.38
24740;BMP280;45234;48.148;17.128;2022-09-19T03:09:46;99413.91;;;12.20
24740;BMP280;45234;48.148;17.128;2022-09-19T03:12:16;99409.56;;;12.14
24740;BMP280;45234;48.148;17.128;2022-09-19T03:14:47;99422.06;;;12.06
24740;BMP280;45234;48.148;17.128;2022-09-19T03:17:16;99418.09;;;12.03
24740;BMP280;45234;48.148;17.128;2022-09-19T03:19:46;99422.13;;;11.99
24740;BMP280;45234;48.148;17.128;2022-09-19T03:22:16;99426.94;;;11.95
24740;BMP280;45234;48.148;17.128;2022-09-19T03:24:43;99429.59;;;11.89
24740;BMP280;45234;48.148;17.128;2022-09-19T03:27:11;99426.72;;;11.79
24740;BMP280;45234;48.148;17.128;2022-09-19T03:29:38;99428.94;;;11.75
24740;BMP280;45234;48.148;17.128;2022-09-19T03:32:05;99431.63;;;11.69
24740;BMP280;45234;48.148;17.128;2022-09-19T03:34:32;99429.28;;;11.60
24740;BMP280;45234;48.148;17.128;2022-09-19T03:37:03;99426.91;;;11.59
24740;BMP280;45234;48.148;17.128;2022-09-19T03:39:31;99430.56;;;11.51
24740;BMP280;45234;48.148;17.128;2022-09-19T03:41:58;99425.78;;;11.48
24740;BMP280;45234;48.148;17.128;2022-09-19T03:44:33;99437.75;;;11.49
24740;BMP280;45234;48.148;17.128;2022-09-19T03:47:01;99429.56;;;11.52
24740;BMP280;45234;48.148;17.128;2022-09-19T03:49:27;99423.16;;;11.55
24740;BMP280;45234;48.148;17.128;2022-09-19T03:51:55;99432.50;;;11.56
24740;BMP280;45234;48.148;17.128;2022-09-19T03:54:23;99424.53;;;11.57
24740;BMP280;45234;48.148;17.128;2022-09-19T03:56:50;99430.44;;;11.64
24740;BMP280;45234;48.148;17.128;2022-09-19T03:59:16;99433.47;;;11.61
24740;BMP280;45234;48.148;17.128;2022-09-19T04:01:45;99431.00;;;11.67
24740;BMP280;45234;48.148;17.128;2022-09-19T04:04:12;99432.22;;;11.64
24740;BMP280;45234;48.148;17.128;2022-09-19T04:06:45;99428.63;;;11.65
24740;BMP280;45234;48.148;17.128;2022-09-19T04:09:12;99432.19;;;11.71
24740;BMP280;45234;48.148;17.128;2022-09-19T04:11:42;99437.16;;;11.72
24740;BMP280;45234;48.148;17.128;2022-09-19T04:14:09;99448.13;;;11.74
24740;BMP280;45234;48.148;17.128;2022-09-19T04:16:36;99464.84;;;11.78
24740;BMP280;45234;48.148;17.128;2022-09-19T04:19:05;99460.84;;;11.82
24740;BMP280;45234;48.148;17.128;2022-09-19T04:21:56;99467.03;;;11.81
24740;BMP280;45234;48.148;17.128;2022-09-19T04:24:33;99478.22;;;11.82
24740;BMP280;45234;48.148;17.128;2022-09-19T04:27:12;99475.41;;;11.83
24740;BMP280;45234;48.148;17.128;2022-09-19T04:29:47;99465.03;;;11.83
24740;BMP280;45234;48.148;17.128;2022-09-19T04:32:14;99477.44;;;11.81
24740;BMP280;45234;48.148;17.128;2022-09-19T04:34:48;99458.25;;;11.82
24740;BMP280;45234;48.148;17.128;2022-09-19T04:37:16;99472.59;;;11.85
24740;BMP280;45234;48.148;17.128;2022-09-19T04:39:50;99464.44;;;11.81
24740;BMP280;45234;48.148;17.128;2022-09-19T04:42:17;99478.22;;;11.82
24740;BMP280;45234;48.148;17.128;2022-09-19T04:44:44;99488.81;;;11.80
24740;BMP280;45234;48.148;17.128;2022-09-19T04:47:20;99496.41;;;11.82
24740;BMP280;45234;48.148;17.128;2022-09-19T04:49:48;99507.00;;;11.80
24740;BMP280;45234;48.148;17.128;2022-09-19T04:52:15;99521.34;;;11.83
24740;BMP280;45234;48.148;17.128;2022-09-19T04:54:44;99522.78;;;11.79
24740;BMP280;45234;48.148;17.128;2022-09-19T04:57:12;99521.47;;;11.70
24740;BMP280;45234;48.148;17.128;2022-09-19T04:59:41;99530.31;;;11.55
24740;BMP280;45234;48.148;17.128;2022-09-19T05:02:10;99524.78;;;11.52
24740;BMP280;45234;48.148;17.128;2022-09-19T05:04:37;99525.59;;;11.46
24740;BMP280;45234;48.148;17.128;2022-09-19T05:07:05;99527.50;;;11.32
24740;BMP280;45234;48.148;17.128;2022-09-19T05:09:35;99522.97;;;11.21
24740;BMP280;45234;48.148;17.128;2022-09-19T05:12:08;99534.56;;;11.12
24740;BMP280;45234;48.148;17.128;2022-09-19T05:14:40;99525.44;;;11.03
24740;BMP280;45234;48.148;17.128;2022-09-19T05:17:08;99526.66;;;11.00
24740;BMP280;45234;48.148;17.128;2022-09-19T05:19:37;99535.44;;;10.99
24740;BMP280;45234;48.148;17.128;2022-09-19T05:22:08;99528.28;;;10.94
24740;BMP280;45234;48.148;17.128;2022-09-19T05:24:35;99532.28;;;10.90
24740;BMP280;45234;48.148;17.128;2022-09-19T05:27:59;99548.41;;;10.92
24740;BMP280;45234;48.148;17.128;2022-09-19T05:30:45;99544.06;;;10.86
24740;BMP280;45234;48.148;17.128;2022-09-19T05:33:13;99553.00;;;10.90
24740;BMP280;45234;48.148;17.128;2022-09-19T05:35:44;99547.00;;;10.97
24740;BMP280;45234;48.148;17.128;2022-09-19T05:38:32;99553.75;;;11.04
24740;BMP280;45234;48.148;17.128;2022-09-19T05:41:15;99551.38;;;11.09
24740;BMP280;45234;48.148;17.128;2022-09-19T05:43:49;99562.09;;;11.13
24740;BMP280;45234;48.148;17.128;2022-09-19T05:46:17;99566.47;;;11.19
24740;BMP280;45234;48.148;17.128;2022-09-19T05:48:47;99570.84;;;11.25
24740;BMP280;45234;48.148;17.128;2022-09-19T05:51:14;99577.19;;;11.29
24740;BMP280;45234;48.148;17.128;2022-09-19T05:53:43;99580.31;;;11.44
24740;BMP280;45234;48.148;17.128;2022-09-19T05:56:42;99586.16;;;11.64
24740;BMP280;45234;48.148;17.128;2022-09-19T05:59:12;99597.78;;;11.62
24740;BMP280;45234;48.148;17.128;2022-09-19T06:01:42;99592.22;;;11.58
24740;BMP280;45234;48.148;17.128;2022-09-19T06:04:25;99593.03;;;11.52
24740;BMP280;45234;48.148;17.128;2022-09-19T06:06:52;99599.44;;;11.50
24740;BMP280;45234;48.148;17.128;2022-09-19T06:09:20;99601.66;;;11.46
24740;BMP280;45234;48.148;17.128;2022-09-19T06:11:53;99602.66;;;11.45
24740;BMP280;45234;48.148;17.128;2022-09-19T06:14:20;99602.63;;;11.52
24740;BMP280;45234;48.148;17.128;2022-09-19T06:16:51;99612.41;;;11.50
24740;BMP280;45234;48.148;17.128;2022-09-19T06:19:34;99617.00;;;11.54
24740;BMP280;45234;48.148;17.128;2022-09-19T06:22:11;99617.81;;;11.48
24740;BMP280;45234;48.148;17.128;2022-09-19T06:24:41;99622.19;;;11.54
24740;BMP280;45234;48.148;17.128;2022-09-19T06:27:10;99620.84;;;11.77
24740;BMP280;45234;48.148;17.128;2022-09-19T06:29:42;99626.75;;;12.65
24740;BMP280;45234;48.148;17.128;2022-09-19T06:32:20;99633.97;;;13.18
24740;BMP280;45234;48.148;17.128;2022-09-19T06:34:57;99629.56;;;13.48
24740;BMP280;45234;48.148;17.128;2022-09-19T06:37:29;99626.56;;;13.33
24740;BMP280;45234;48.148;17.128;2022-09-19T06:39:59;99629.44;;;13.25
24740;BMP280;45234;48.148;17.128;2022-09-19T06:42:59;99628.69;;;13.36
24740;BMP280;45234;48.148;17.128;2022-09-19T06:45:44;99625.03;;;13.25
24740;BMP280;45234;48.148;17.128;2022-09-19T06:48:17;99622.72;;;12.87
24740;BMP280;45234;48.148;17.128;2022-09-19T06:50:59;99627.59;;;12.77
24740;BMP280;45234;48.148;17.128;2022-09-19T06:53:27;99629.78;;;12.80
24740;BMP280;45234;48.148;17.128;2022-09-19T06:55:58;99632.00;;;12.77
24740;BMP280;45234;48.148;17.128;2022-09-19T06:58:29;99632.31;;;12.69
24740;BMP280;45234;48.148;17.128;2022-09-19T07:00:58;99626.53;;;12.66
24740;BMP280;45234;48.148;17.128;2022-09-19T07:03:26;99616.41;;;12.58
24740;BMP280;45234;48.148;17.128;2022-09-19T07:05:57;99628.03;;;12.56
24740;BMP280;45234;48.148;17.128;2022-09-19T07:08:47;99630.66;;;12.49
24740;BMP280;45234;48.148;17.128;2022-09-19T07:11:14;99643.53;;;12.44
24740;BMP280;45234;48.148;17.128;2022-09-19T07:13:48;99644.03;;;12.35
24740;BMP280;45234;48.148;17.128;2022-09-19T07:16:16;99646.31;;;12.24
24740;BMP280;45234;48.148;17.128;2022-09-19T07:18:44;99634.72;;;12.20
24740;BMP280;45234;48.148;17.128;2022-09-19T07:21:29;99649.22;;;12.35
24740;BMP280;45234;48.148;17.128;2022-09-19T07:23:58;99638.41;;;12.56
24740;BMP280;45234;48.148;17.128;2022-09-19T07:27:06;99649.25;;;12.71
24740;BMP280;45234;48.148;17.128;2022-09-19T07:29:40;99637.13;;;12.83
24740;BMP280;45234;48.148;17.128;2022-09-19T07:32:07;99651.09;;;13.37
24740;BMP280;45234;48.148;17.128;2022-09-19T07:34:35;99643.97;;;14.04
24740;BMP280;45234;48.148;17.128;2022-09-19T07:37:03;99650.88;;;14.57
24740;BMP280;45234;48.148;17.128;2022-09-19T07:39:31;99647.66;;;14.90
24740;BMP280;45234;48.148;17.128;2022-09-19T07:42:30;99657.44;;;14.83
24740;BMP280;45234;48.148;17.128;2022-09-19T07:45:26;99647.81;;;14.60
24740;BMP280;45234;48.148;17.128;2022-09-19T07:48:18;99655.09;;;14.58
24740;BMP280;45234;48.148;17.128;2022-09-19T07:51:09;99670.84;;;14.51
24740;BMP280;45234;48.148;17.128;2022-09-19T07:53:38;99654.09;;;14.35
24740;BMP280;45234;48.148;17.128;2022-09-19T07:56:05;99663.91;;;14.10
24740;BMP280;45234;48.148;17.128;2022-09-19T07:58:33;99664.56;;;13.94
24740;BMP280;45234;48.148;17.128;2022-09-19T08:01:01;99674.25;;;13.87
24740;BMP280;45234;48.148;17.128;2022-09-19T08:03:48;99680.47;;;13.74
24740;BMP280;45234;48.148;17.128;2022-09-19T08:06:22;99680.22;;;13.64
24740;BMP280;45234;48.148;17.128;2022-09-19T08:08:50;99681.31;;;13.56
24740;BMP280;45234;48.148;17.128;2022-09-19T08:11:37;99685.25;;;13.47
24740;BMP280;45234;48.148;17.128;2022-09-19T08:14:06;99679.34;;;13.40
24740;BMP280;45234;48.148;17.128;2022-09-19T08:16:34;99688.28;;;13.44
24740;BMP280;45234;48.148;17.128;2022-09-19T08:19:02;99692.47;;;13.45
24740;BMP280;45234;48.148;17.128;2022-09-19T08:21:31;99692.75;;;13.37
24740;BMP280;45234;48.148;17.128;2022-09-19T08:24:06;99698.41;;;13.34
24740;BMP280;45234;48.148;17.128;2022-09-19T08:26:34;99706.38;;;13.21
24740;BMP280;45234;48.148;17.128;2022-09-19T08:29:01;99713.09;;;13.10
24740;BMP280;45234;48.148;17.128;2022-09-19T08:31:34;99715.03;;;12.96
24740;BMP280;45234;48.148;17.128;2022-09-19T08:34:02;99716.63;;;12.97
24740;BMP280;45234;48.148;17.128;2022-09-19T08:36:29;99718.69;;;12.95
24740;BMP280;45234;48.148;17.128;2022-09-19T08:38:59;99730.09;;;13.13
24740;BMP280;45234;48.148;17.128;2022-09-19T08:49:32;99723.53;;;13.58
24740;BMP280;45234;48.148;17.128;2022-09-19T08:52:09;99721.63;;;13.54
24740;BMP280;45234;48.148;17.128;2022-09-19T08:54:39;99731.25;;;13.35
24740;BMP280;45234;48.148;17.128;2022-09-19T08:57:12;99727.75;;;13.05
24740;BMP280;45234;48.148;17.128;2022-09-19T08:59:40;99730.66;;;12.96
24740;BMP280;45234;48.148;17.128;2022-09-19T09:02:17;99721.78;;;12.61
24740;BMP280;45234;48.148;17.128;2022-09-19T09:05:02;99719.91;;;12.43
24740;BMP280;45234;48.148;17.128;2022-09-19T09:07:40;99743.25;;;12.18
24740;BMP280;45234;48.148;17.128;2022-09-19T09:10:34;99738.56;;;12.02
24740;BMP280;45234;48.148;17.128;2022-09-19T09:16:14;99734.06;;;11.78
24740;BMP280;45234;48.148;17.128;2022-09-19T09:18:49;99739.09;;;11.79
24740;BMP280;45234;48.148;17.128;2022-09-19T09:21:31;99735.84;;;11.90
24740;BMP280;45234;48.148;17.128;2022-09-19T09:24:16;99721.63;;;11.93
24740;BMP280;45234;48.148;17.128;2022-09-19T09:27:20;99742.03;;;12.27
24740;BMP280;45234;48.148;17.128;2022-09-19T09:30:13;99740.84;;;12.23
24740;BMP280;45234;48.148;17.128;2022-09-19T09:32:54;99742.69;;;12.48
24740;BMP280;45234;48.148;17.128;2022-09-19T09:35:33;99742.03;;;12.77
24740;BMP280;45234;48.148;17.128;2022-09-19T09:38:11;99742.56;;;13.04
24740;BMP280;45234;48.148;17.128;2022-09-19T09:40:53;99733.94;;;13.28
24740;BMP280;45234;48.148;17.128;2022-09-19T09:43:48;99736.41;;;13.42
24740;BMP280;45234;48.148;17.128;2022-09-19T09:46:21;99729.16;;;13.07
24740;BMP280;45234;48.148;17.128;2022-09-19T09:48:58;99730.53;;;13.10
24740;BMP280;45234;48.148;17.128;2022-09-19T09:56:59;99724.44;;;13.52
24740;BMP280;45234;48.148;17.128;2022-09-19T09:59:40;99728.06;;;13.51
24740;BMP280;45234;48.148;17.128;2022-09-19T10:02:50;99734.56;;;13.60
24740;BMP280;45234;48.148;17.128;2022-09-19T10:05:42;99737.44;;;13.70
24740;BMP280;45234;48.148;17.128;2022-09-19T10:08:21;99744.38;;;13.88
24740;BMP280;45234;48.148;17.128;2022-09-19T10:14:03;99737.63;;;14.40
24740;BMP280;45234;48.148;17.128;2022-09-19T10:16:33;99737.03;;;14.73
24740;BMP280;45234;48.148;17.128;2022-09-19T10:19:24;99736.81;;;14.75
24740;BMP280;45234;48.148;17.128;2022-09-19T10:21:56;99743.19;;;14.44
24740;BMP280;45234;48.148;17.128;2022-09-19T10:24:39;99743.75;;;14.34
24740;BMP280;45234;48.148;17.128;2022-09-19T10:29:50;99745.78;;;14.56
24740;BMP280;45234;48.148;17.128;2022-09-19T10:32:23;99737.16;;;14.78
24740;BMP280;45234;48.148;17.128;2022-09-19T10:38:07;99742.72;;;14.94
24740;BMP280;45234;48.148;17.128;2022-09-19T10:40:36;99740.22;;;14.52
24740;BMP280;45234;48.148;17.128;2022-09-19T10:43:04;99735.13;;;14.46
24740;BMP280;45234;48.148;17.128;2022-09-19T10:45:33;99734.56;;;14.55
24740;BMP280;45234;48.148;17.128;2022-09-19T10:50:40;99745.50;;;14.22
24740;BMP280;45234;48.148;17.128;2022-09-19T10:53:14;99754.25;;;14.28
24740;BMP280;45234;48.148;17.128;2022-09-19T10:55:42;99751.91;;;14.50
24740;BMP280;45234;48.148;17.128;2022-09-19T10:58:20;99750.31;;;14.72
24740;BMP280;45234;48.148;17.128;2022-09-19T11:01:20;99745.09;;;14.72
24740;BMP280;45234;48.148;17.128;2022-09-19T11:06:37;99753.47;;;14.27
24740;BMP280;45234;48.148;17.128;2022-09-19T11:09:26;99758.75;;;14.09
24740;BMP280;45234;48.148;17.128;2022-09-19T11:12:02;99776.97;;;14.09
24740;BMP280;45234;48.148;17.128;2022-09-19T11:14:40;99772.03;;;14.19
24740;BMP280;45234;48.148;17.128;2022-09-19T11:20:18;99794.00;;;13.27
24740;BMP280;45234;48.148;17.128;2022-09-19T11:42:29;99777.56;;;12.34
24740;BMP280;45234;48.148;17.128;2022-09-19T11:57:46;99752.06;;;12.42
24740;BMP280;45234;48.148;17.128;2022-09-19T12:03:08;99755.41;;;12.56
24740;BMP280;45234;48.148;17.128;2022-09-19T12:08:23;99752.06;;;12.74
24740;BMP280;45234;48.148;17.128;2022-09-19T12:11:17;99749.06;;;12.95
24740;BMP280;45234;48.148;17.128;2022-09-19T12:13:55;99752.22;;;13.40
24740;BMP280;45234;48.148;17.128;2022-09-19T12:19:25;99759.81;;;14.31
24740;BMP280;45234;48.148;17.128;2022-09-19T12:21:58;99747.25;;;14.52
24740;BMP280;45234;48.148;17.128;2022-09-19T12:24:29;99755.53;;;14.72
24740;BMP280;45234;48.148;17.128;2022-09-19T12:32:22;99756.25;;;15.42
24740;BMP280;45234;48.148;17.128;2022-09-19T12:34:55;99770.56;;;15.68
24740;BMP280;45234;48.148;17.128;2022-09-19T12:37:39;99776.00;;;15.78
24740;BMP280;45234;48.148;17.128;2022-09-19T12:40:14;99779.41;;;15.79
24740;BMP280;45234;48.148;17.128;2022-09-19T12:42:47;99783.03;;;15.78
24740;BMP280;45234;48.148;17.128;2022-09-19T12:47:58;99768.78;;;15.57
24740;BMP280;45234;48.148;17.128;2022-09-19T12:50:51;99769.06;;;15.44
24740;BMP280;45234;48.148;17.128;2022-09-19T12:54:03;99756.09;;;15.49
24740;BMP280;45234;48.148;17.128;2022-09-19T12:58:53;99750.31;;;15.47
24740;BMP280;45234;48.148;17.128;2022-09-19T13:01:30;99749.47;;;15.58
24740;BMP280;45234;48.148;17.128;2022-09-19T13:06:52;99761.38;;;15.26
24740;BMP280;45234;48.148;17.128;2022-09-19T13:09:23;99765.69;;;15.32
24740;BMP280;45234;48.148;17.128;2022-09-19T13:11:53;99760.66;;;15.42
24740;BMP280;45234;48.148;17.128;2022-09-19T13:14:26;99778.19;;;15.30
24740;BMP280;45234;48.148;17.128;2022-09-19T13:17:02;99781.38;;;15.32
24740;BMP280;45234;48.148;17.128;2022-09-19T13:19:51;99779.53;;;15.32
24740;BMP280;45234;48.148;17.128;2022-09-19T13:22:47;99792.56;;;15.44
24740;BMP280;45234;48.148;17.128;2022-09-19T13:25:34;99790.41;;;15.41
24740;BMP280;45234;48.148;17.128;2022-09-19T13:28:24;99777.72;;;15.33
24740;BMP280;45234;48.148;17.128;2022-09-19T13:30:51;99788.72;;;15.35
24740;BMP280;45234;48.148;17.128;2022-09-19T13:35:49;99802.41;;;15.65
24740;BMP280;45234;48.148;17.128;2022-09-19T13:38:23;99820.53;;;15.32
24740;BMP280;45234;48.148;17.128;2022-09-19T13:40:56;99846.84;;;14.95
24740;BMP280;45234;48.148;17.128;2022-09-19T13:43:27;99843.41;;;14.48
24740;BMP280;45234;48.148;17.128;2022-09-19T13:51:12;99844.94;;;13.59
24740;BMP280;45234;48.148;17.128;2022-09-19T13:53:42;99851.13;;;13.22
24740;BMP280;45234;48.148;17.128;2022-09-19T13:56:21;99843.44;;;13.09
24740;BMP280;45234;48.148;17.128;2022-09-19T13:59:15;99848.09;;;13.00
24740;BMP280;45234;48.148;17.128;2022-09-19T14:01:40;99847.63;;;13.10
24740;BMP280;45234;48.148;17.128;2022-09-19T14:04:13;99849.66;;;13.26
24740;BMP280;45234;48.148;17.128;2022-09-19T14:07:01;99839.84;;;13.46
24740;BMP280;45234;48.148;17.128;2022-09-19T14:09:50;99846.47;;;13.67
24740;BMP280;45234;48.148;17.128;2022-09-19T14:20:53;99830.41;;;14.00
24740;BMP280;45234;48.148;17.128;2022-09-19T14:23:21;99821.44;;;14.14
24740;BMP280;45234;48.148;17.128;2022-09-19T14:25:53;99829.41;;;14.31
24740;BMP280;45234;48.148;17.128;2022-09-19T14:33:49;99834.38;;;14.32
24740;BMP280;45234;48.148;17.128;2022-09-19T14:44:49;99854.03;;;13.87
24740;BMP280;45234;48.148;17.128;2022-09-19T14:47:33;99844.81;;;13.73
24740;BMP280;45234;48.148;17.128;2022-09-19T14:52:29;99846.09;;;13.63
24740;BMP280;45234;48.148;17.128;2022-09-19T14:55:00;99845.53;;;13.61
24740;BMP280;45234;48.148;17.128;2022-09-19T14:57:29;99841.09;;;13.62
24740;BMP280;45234;48.148;17.128;2022-09-19T15:00:18;99840.88;;;13.63
24740;BMP280;45234;48.148;17.128;2022-09-19T15:02:47;99838.00;;;13.71
24740;BMP280;45234;48.148;17.128;2022-09-19T15:07:42;99835.78;;;13.87
24740;BMP280;45234;48.148;17.128;2022-09-19T15:12:58;99838.69;;;13.79
24740;BMP280;45234;48.148;17.128;2022-09-19T15:15:35;99838.41;;;13.68
24740;BMP280;45234;48.148;17.128;2022-09-19T15:18:17;99836.69;;;13.62
24740;BMP280;45234;48.148;17.128;2022-09-19T15:20:44;99846.09;;;13.63
24740;BMP280;45234;48.148;17.128;2022-09-19T15:23:11;99840.44;;;13.66
24740;BMP280;45234;48.148;17.128;2022-09-19T15:25:39;99837.72;;;13.61
24740;BMP280;45234;48.148;17.128;2022-09-19T15:28:24;99828.13;;;13.55
24740;BMP280;45234;48.148;17.128;2022-09-19T15:30:57;99841.72;;;13.57
24740;BMP280;45234;48.148;17.128;2022-09-19T15:33:36;99832.50;;;13.61
24740;BMP280;45234;48.148;17.128;2022-09-19T15:36:20;99834.22;;;13.67
24740;BMP280;45234;48.148;17.128;2022-09-19T15:38:56;99835.78;;;13.68
24740;BMP280;45234;48.148;17.128;2022-09-19T15:41:25;99827.59;;;13.71
24740;BMP280;45234;48.148;17.128;2022-09-19T15:43:53;99829.19;;;13.73
24740;BMP280;45234;48.148;17.128;2022-09-19T15:48:58;99833.91;;;13.76
24740;BMP280;45234;48.148;17.128;2022-09-19T15:51:27;99825.91;;;13.77
24740;BMP280;45234;48.148;17.128;2022-09-19T15:53:55;99836.91;;;13.79
24740;BMP280;45234;48.148;17.128;2022-09-19T15:56:22;99829.72;;;13.75
24740;BMP280;45234;48.148;17.128;2022-09-19T15:58:53;99827.13;;;13.75
24740;BMP280;45234;48.148;17.128;2022-09-19T16:01:32;99829.78;;;13.68
24740;BMP280;45234;48.148;17.128;2022-09-19T16:04:10;99828.31;;;13.60
24740;BMP280;45234;48.148;17.128;2022-09-19T16:06:40;99828.59;;;13.52
24740;BMP280;45234;48.148;17.128;2022-09-19T16:09:46;99826.47;;;13.43
24740;BMP280;45234;48.148;17.128;2022-09-19T16:15:40;99825.03;;;13.28
24740;BMP280;45234;48.148;17.128;2022-09-19T16:23:05;99843.66;;;13.25
24740;BMP280;45234;48.148;17.128;2022-09-19T16:28:54;99865.34;;;13.19
24740;BMP280;45234;48.148;17.128;2022-09-19T16:31:24;99858.34;;;13.20
24740;BMP280;45234;48.148;17.128;2022-09-19T16:34:00;99870.13;;;13.22
24740;BMP280;45234;48.148;17.128;2022-09-19T16:37:15;99879.28;;;13.25
24740;BMP280;45234;48.148;17.128;2022-09-19T16:42:00;99881.06;;;13.31
24740;BMP280;45234;48.148;17.128;2022-09-19T16:46:59;99892.84;;;13.33
24740;BMP280;45234;48.148;17.128;2022-09-19T16:49:27;99898.72;;;13.29
24740;BMP280;45234;48.148;17.128;2022-09-19T16:51:53;99904.75;;;13.23
24740;BMP280;45234;48.148;17.128;2022-09-19T16:54:20;99908.59;;;13.20
24740;BMP280;45234;48.148;17.128;2022-09-19T16:56:48;99904.97;;;13.21
24740;BMP280;45234;48.148;17.128;2022-09-19T16:59:15;99907.34;;;13.23
24740;BMP280;45234;48.148;17.128;2022-09-19T17:01:43;99909.38;;;13.21
24740;BMP280;45234;48.148;17.128;2022-09-19T17:04:17;99909.22;;;13.16
24740;BMP280;45234;48.148;17.128;2022-09-19T17:06:46;99912.25;;;13.13
24740;BMP280;45234;48.148;17.128;2022-09-19T17:09:13;99916.28;;;13.09
24740;BMP280;45234;48.148;17.128;2022-09-19T17:11:42;99909.50;;;13.08
24740;BMP280;45234;48.148;17.128;2022-09-19T17:14:18;99916.69;;;13.06
24740;BMP280;45234;48.148;17.128;2022-09-19T17:16:46;99909.88;;;13.05
24740;BMP280;45234;48.148;17.128;2022-09-19T17:19:14;99910.31;;;13.01
24740;BMP280;45234;48.148;17.128;2022-09-19T17:21:41;99910.38;;;12.95
24740;BMP280;45234;48.148;17.128;2022-09-19T17:24:09;99915.53;;;13.01
24740;BMP280;45234;48.148;17.128;2022-09-19T17:26:37;99912.47;;;13.05